Flight Track Log - Related Links

Times and Time Zones

All times are in EDT time to prevent confusion due to time zone crossing. See the FLG3735 flight status page for this flight to view local times or setup timezone preferences in your user account.

Time Position Orientation Groundspeed Altitude Reporting Facility
EDT Latitude Longitude Course Direction KTS MPH feet Rate Location/Type
Fri 10:06:36 PM 42.2314 -83.3342 12° North 156 180 1,200  Level Cleveland Center
Fri 10:07:06 PM 42.2506 -83.3153 36° Northeast 168 193 2,400 1,714 Climbing Cleveland Center
Fri 10:08:07 PM 42.2994 -83.2697 35° Northeast 251 289 3,800 1,770 Climbing Cleveland Center
Fri 10:09:00 PM 42.5349 -83.2362 12° North  Level FlightAware Approximate
Fri 10:09:08 PM 42.3656 -83.2164 31° Northeast 290 334 6,000  Level Cleveland Center
Fri 10:10:00 PM 42.6495 -83.2018 12° North  Level FlightAware Approximate
Fri 10:10:10 PM 42.4492 -83.2031 North 289 333 8,500  Level Cleveland Center
Fri 10:11:00 PM 42.7642 -83.1674 12° North  Level FlightAware Approximate
Fri 10:11:10 PM 42.5328 -83.1925 North 321 369 10,200  Level Cleveland Center
Fri 10:12:10 PM 42.6206 -83.1764 North 344 396 12,000 1,900 Climbing Cleveland Center
Fri 10:13:10 PM 42.7147 -83.1633 North 350 403 14,000 1,850 Climbing Cleveland Center
Fri 10:14:10 PM 42.8131 -83.1503 North 350 403 15,700 1,500 Climbing Cleveland Center
Fri 10:15:10 PM 42.9136 -83.1289 North 355 409 17,000 1,350 Climbing Cleveland Center
Fri 10:16:10 PM 42.9783 -83.0264 49° Northeast 350 403 18,400 1,300 Climbing Cleveland Center
Fri 10:17:10 PM 43.0083 -82.8772 75° East 348 400 19,600 1,150 Climbing Cleveland Center
Fri 10:18:10 PM 43.0406 -82.7278 74° East 372 428 20,700 1,000 Climbing Cleveland Center
Fri 10:19:10 PM 43.0744 -82.5728 73° East 398 458 21,600 923 Climbing Cleveland Center
Fri 10:20:07 PM 43.1000 -82.4167 77° East 420 483 22,500 872 Climbing Toronto Center
Fri 10:21:07 PM 43.1333 -82.2667 73° East 430 495 23,300 800 Climbing Toronto Center
Fri 10:22:07 PM 43.1500 -82.1000 82° East 440 506 24,100 800 Climbing Toronto Center
Fri 10:23:07 PM 43.1833 -81.9167 76° East 450 518 24,900 800 Climbing Toronto Center
Fri 10:24:07 PM 43.2333 -81.7667 65° Northeast 450 518 25,700 800 Climbing Toronto Center
Fri 10:25:07 PM 43.2667 -81.6000 75° East 460 529 26,500 700 Climbing Toronto Center
Fri 10:26:07 PM 43.3000 -81.4167 76° East 460 529 27,100 600 Climbing Toronto Center
Fri 10:27:07 PM 43.3333 -81.2667 73° East 470 541 27,700 650 Climbing Toronto Center
Fri 10:28:07 PM 43.3667 -81.0833 76° East 470 541 28,400 600 Climbing Toronto Center
Fri 10:29:07 PM 43.4000 -80.9000 76° East 470 541 28,900 300 Climbing Toronto Center
Fri 10:30:07 PM 43.4500 -80.7333 67° East 480 552 29,000 50 Climbing Toronto Center
Fri 10:31:07 PM 43.4833 -80.5333 77° East 490 564 29,000  Level Toronto Center
Fri 10:32:07 PM 43.5167 -80.3667 75° East 500 575 29,000  Level Toronto Center
Fri 10:33:07 PM 43.5500 -80.1667 77° East 500 575 29,000  Level Toronto Center
Fri 10:34:07 PM 43.5833 -80.0000 75° East 500 575 29,000  Level Toronto Center
Fri 10:35:07 PM 43.6167 -79.8000 77° East 500 575 29,000  Level Toronto Center
Fri 10:36:07 PM 43.6500 -79.6167 76° East 500 575 29,000  Level Toronto Center
Fri 10:37:07 PM 43.6500 -79.4333 90° East 500 575 29,000  Level Toronto Center
Fri 10:38:07 PM 43.6667 -79.2333 83° East 490 564 29,000  Level Toronto Center
Fri 10:39:07 PM 43.6667 -79.0500 90° East 490 564 29,000  Level Toronto Center
Fri 10:40:07 PM 43.6833 -78.8667 83° East 490 564 29,000  Level Toronto Center
Fri 10:41:07 PM 43.6833 -78.6667 90° East 490 564 29,000  Level Toronto Center
Fri 10:42:07 PM 43.6833 -78.4833 90° East 490 564 29,000  Level Toronto Center
Fri 10:43:07 PM 43.6833 -78.3000 90° East 490 564 29,000  Level Toronto Center
Fri 10:44:07 PM 43.6833 -78.1167 90° East 490 564 29,000  Level Toronto Center
Fri 10:45:07 PM 43.7000 -77.9333 83° East 490 564 29,000  Level Toronto Center
Fri 10:46:07 PM 43.7000 -77.7167 90° East 490 564 29,000  Level Toronto Center
Fri 10:47:07 PM 43.7167 -77.5333 83° East 490 564 29,000  Level Toronto Center
Fri 10:48:07 PM 43.7000 -77.3500 97° East 490 564 29,000  Level Toronto Center
Fri 10:49:07 PM 43.7167 -77.1667 83° East 490 564 29,000  Level Toronto Center
Fri 10:50:07 PM 43.7167 -76.9500 90° East 490 564 29,000  Level Toronto Center
Fri 10:51:07 PM 43.7167 -76.7667 90° East 490 564 29,000  Level Toronto Center
Fri 10:52:07 PM 43.6833 -76.5833 104° East 480 552 29,000  Level Toronto Center
Fri 10:52:27 PM 43.6906 -76.5839 357° North 484 557 29,000  Level Boston Center
Fri 10:53:27 PM 43.6378 -76.4225 114° Southeast 468 539 29,000  Level Boston Center
Fri 10:54:27 PM 43.5831 -76.2556 114° Southeast 468 539 29,000  Level Boston Center
Fri 10:55:27 PM 43.5300 -76.0917 114° Southeast 468 539 29,000  Level Boston Center
Fri 10:56:27 PM 43.4747 -75.9253 115° Southeast 468 539 29,000  Level Boston Center
Fri 10:57:27 PM 43.4192 -75.7592 115° Southeast 468 539 29,000  Level Boston Center
Fri 10:58:27 PM 43.3656 -75.5961 114° Southeast 468 539 29,000 -1,050 Level Boston Center
Fri 10:59:27 PM 43.3072 -75.4333 116° Southeast 473 544 26,900 -2,500 Descending Boston Center
Fri 11:00:27 PM 43.2472 -75.2564 115° Southeast 473 544 24,000 -2,650 Descending Boston Center
Fri 11:01:27 PM 43.1967 -75.1003 114° Southeast 463 533 21,600 -2,450 Descending Boston Center
Fri 11:02:27 PM 43.1461 -74.9472 114° Southeast 447 514 19,100 -2,621 Descending Boston Center
Fri 11:02:54 PM 43.1225 -74.8753 114° Southeast 458 527 17,800 -2,500 Descending Boston Center
Fri 11:03:27 PM 43.0989 -74.8144 118° Southeast 442 509 16,600 -2,557 Descending Boston Center
Fri 11:03:55 PM 43.0733 -74.7339 113° Southeast 424 488 15,200 -2,600 Descending Boston Center
Fri 11:04:27 PM 43.0458 -74.6561 116° Southeast 423 487 14,000 -2,066 Descending Boston Center
Fri 11:04:56 PM 43.0261 -74.5958 114° Southeast 397 457 13,100 -1,900 Descending Boston Center
Fri 11:05:27 PM 43.0042 -74.5383 118° Southeast 392 451 12,100 -2,100 Descending Boston Center
Fri 11:05:56 PM 42.9825 -74.4694 113° Southeast 358 412 11,000 -1,700 Descending Boston Center
Fri 11:06:27 PM 42.9733 -74.4011 100° East 353 406 10,400 -1,082 Descending Boston Center
Fri 11:06:57 PM 42.9700 -74.3469 95° East 308 354 9,900 -1,200 Descending Boston Center
Fri 11:07:27 PM 42.9647 -74.2956 98° East 325 374 9,200 -1,672 Descending Boston Center
Fri 11:07:58 PM 42.9594 -74.2275 96° East 296 341 8,200 -1,700 Descending Boston Center
Fri 11:08:27 PM 42.9542 -74.1733 98° East 302 348 7,500 -1,700 Descending Boston Center
Fri 11:08:58 PM 42.9508 -74.1136 94° East 296 341 6,500 -1,700 Descending Boston Center
Fri 11:09:27 PM 42.9472 -74.0739 97° East 297 342 5,800 -1,770 Descending Boston Center
Fri 11:09:59 PM 42.9439 -74.0058 94° East 287 330 4,700 -1,900 Descending Boston Center
Fri 11:10:27 PM 42.9364 -73.9572 102° East 292 336 3,900 -1,770 Descending Boston Center
Fri 11:11:00 PM 42.9350 -73.9006 92° East 278 320 2,900 -1,400 Descending Boston Center
Fri 11:11:27 PM 42.9292 -73.8636 102° East 286 329 2,500 -500 Descending Boston Center
Fri 11:12:00 PM 42.9089 -73.8178 121° Southeast 212 244 2,400 -600 Descending Boston Center
Fri 11:12:27 PM 42.8903 -73.8061 155° Southeast 207 238 1,900 -590 Descending Boston Center
Fri 11:13:01 PM 42.8611 -73.8139 191° South 160 184 1,800 -100 Descending Boston Center
Fri 11:13:27 PM 42.8508 -73.7908 121° Southeast 175 201 1,800  Level Boston Center

Login

Don't have an account? Register now (free) for customized features, flight alerts, and more!